LRSBLRIA

Guest
Details From LRSB - Sibiu
To LRIA - Iasi
Flight Number -
Tags Generated
Created
Modified
Stats Distance 169 nm / 312 km
Max Altitude 0 ft / 0 m
Waypoints 2
Social Downloads 0
Likes 0
Share VATSIM

Download

Looking for another format? Having issues loading an existing format? Contact us
Advertisement - Login to hide

Notes

Generated

Route

LRSB LRIA

ID Type Via Altitude Latitude Longitude Leg Dist Tot Dist Heading (true) Name
O LRSB APT - 0 ft / 0 m 45.78576˚ 24.07857˚ - 0 nm - -
O LRIA APT - 0 ft / 0 m 47.18571˚ 27.61556˚ 168 nm 168 nm 59° / 61° -

Altitude Profile

Advertisement - Login to hide

Weather


0- 5 10 15 20 25 30 35+ Temperature / ° C

Clouds and Precipitation
Forecast for 2018-05-25 12:00 UTC. Updated 19 minutes ago

Ground ~20,000 ft ~40,000 ft Winds

LRSB

Details ICAO LRSB (SBZ)
Name SIBIU
Region Romania
Timezone Europe/Bucharest (UTC+3.0)
Stats Elevation 1,496 ft / 456 m (AMSL)
Location 45.785596° 24.091341°
Runways 1
Magnetic Variation 5.508° E

METAR

LRSB 250930Z 11005KT 010V150 9999 SCT050 24/13 Q1017

Decode

TAF

TAF LRSB 250500Z 2506/2606 VRB04KT CAVOK BECMG 2507/2509 13012KT TEMPO 2511/2517 SCT030CB PROB30 2512/2517 VRB15G25KT 3000 TSRA BKN010 BKN030CB BECMG 2518/2520 VRB04KT

Decode

Departure Runways

ID Width Length Bearing (true) Bearing (mag) Surface Threshold Offset Overrun Length
09 98 ft / 30 m 6,500 ft / 1,981 m 91.07° 85.56° Concrete 0 ft / 0 m 0 ft / 0 m
27 98 ft / 30 m 6,500 ft / 1,981 m 271.09° 265.58° Concrete 492 ft / 150 m 0 ft / 0 m

LRIA

Details ICAO LRIA (IAS)
Name IASI
Region Romania
Timezone Europe/Bucharest (UTC+3.0)
Stats Elevation 397 ft / 121 m (AMSL)
Location 47.178490° 27.620632°
Runways 1
Magnetic Variation 6.365° E

METAR

LRIA 250930Z 01008KT 330V060 9999 FEW055TCU 27/11 Q1017

Decode

TAF

Not found

Destination Runways

ID Width Length Bearing (true) Bearing (mag) Surface Threshold Offset Overrun Length
15 98 ft / 30 m 5,841 ft / 1,780 m 154.46° 148.09° Concrete 0 ft / 0 m 0 ft / 0 m
33 98 ft / 30 m 5,841 ft / 1,780 m 334.46° 328.09° Concrete 0 ft / 0 m 0 ft / 0 m

Approach Navaids

Runway Type Ident Frequency Range Bearing (true) Bearing (mag) Slope Elevation
15 Localiser IIS 109.10 MHz 18 nm / 33 km 154.92° 148.55° - 397 ft / 121 m (AMSL)
15 Glidescope IIS 109.10 MHz 10 nm / 19 km 154.46° 148.10° 3.00° 397 ft / 121 m (AMSL)
15 DME IIS 109.10 MHz 18 nm / 33 km - - - 500 ft / 152 m (AMSL)